Terminal Aerodrome Forecast
Issued by NWS Twin Cities, MN

Home | Current Version | Previous Version | Graphics & Text | Print | Product List | Glossary On
Versions: 1 2 3 4 5 6 7 8 9 10 11 12 13 14 15 16 17 18 19 20 21
000
FTUS43 KMPX 270525
TAFEAU
TAF
KEAU 270525Z 2706/2806 30006KT 6SM BR VCSH SCT008 BKN012 OVC090
      TEMPO 2706/2710 2SM BR OVC006
     FM271000 28008KT 4SM BR SCT008 BKN050
     FM271500 26012G18KT P6SM VCSH SCT020 BKN050
     FM280000 24004KT P6SM SKC=

USA.gov is the U.S. government's official web portal to all federal, state and local government web resources and services.